createdAt,value
2019-05-07T00:01:07.785Z,72.60
2019-05-07T00:03:36.337Z,72.80
2019-05-07T00:06:05.230Z,72.80
2019-05-07T00:08:33.708Z,72.50
2019-05-07T00:11:02.531Z,72.80
2019-05-07T00:13:33.374Z,73.00
2019-05-07T00:16:02.490Z,73.20
2019-05-07T00:18:32.352Z,73.10
2019-05-07T00:21:03.376Z,73.10
2019-05-07T00:23:32.531Z,73.30
2019-05-07T00:26:02.416Z,73.30
2019-05-07T00:28:32.426Z,73.40
2019-05-07T00:31:02.911Z,73.60
2019-05-07T00:33:32.488Z,73.80
2019-05-07T00:36:05.784Z,73.80
2019-05-07T00:38:45.355Z,74.00
2019-05-07T00:41:15.437Z,74.20
2019-05-07T00:43:45.717Z,74.40
2019-05-07T00:46:15.796Z,74.50
2019-05-07T00:48:44.261Z,74.70
2019-05-07T00:51:33.152Z,74.80
2019-05-07T00:54:02.908Z,75.00
2019-05-07T00:56:33.228Z,75.10
2019-05-07T00:59:02.317Z,75.00
2019-05-07T01:01:32.378Z,75.00
2019-05-07T01:04:02.625Z,75.30
2019-05-07T01:06:33.111Z,75.20
2019-05-07T01:09:03.150Z,75.20
2019-05-07T01:11:33.572Z,75.40
2019-05-07T01:14:02.763Z,75.50
2019-05-07T01:16:32.959Z,75.50
2019-05-07T01:19:02.208Z,75.80
2019-05-07T01:21:32.416Z,76.20
2019-05-07T01:24:03.221Z,76.30
2019-05-07T01:26:32.938Z,76.40
2019-05-07T01:29:02.976Z,76.50
2019-05-07T01:31:34.868Z,76.60
2019-05-07T01:34:08.164Z,76.80
2019-05-07T01:36:36.893Z,77.30
2019-05-07T01:39:06.191Z,78.00
2019-05-07T01:41:34.658Z,77.40
2019-05-07T01:44:03.115Z,77.30
2019-05-07T01:46:32.504Z,77.50
2019-05-07T01:49:03.011Z,77.90
2019-05-07T01:51:32.676Z,78.00
2019-05-07T01:54:02.238Z,78.10
2019-05-07T01:56:32.999Z,78.20
2019-05-07T01:59:02.434Z,78.30
2019-05-07T02:01:33.170Z,78.70
2019-05-07T02:04:05.696Z,78.70
2019-05-07T02:06:38.547Z,78.90
2019-05-07T02:09:18.240Z,79.30
2019-05-07T02:11:48.362Z,79.40
2019-05-07T02:14:16.801Z,79.80
2019-05-07T02:16:45.263Z,80.00
2019-05-07T02:19:13.983Z,80.20
2019-05-07T02:21:42.539Z,80.00
2019-05-07T02:24:12.662Z,80.20
2019-05-07T02:26:42.713Z,80.10
2019-05-07T02:29:12.238Z,80.00
2019-05-07T02:31:44.113Z,80.20
2019-05-07T02:34:14.039Z,80.20
2019-05-07T02:36:43.343Z,80.10
2019-05-07T02:39:24.024Z,80.20
2019-05-07T02:41:54.305Z,80.10
2019-05-07T02:44:23.456Z,80.30
2019-05-07T02:46:59.619Z,80.20
2019-05-07T02:49:32.596Z,80.70
2019-05-07T02:52:04.139Z,81.80
2019-05-07T02:54:33.345Z,80.90
2019-05-07T02:57:03.168Z,81.10
2019-05-07T02:59:33.609Z,81.00
2019-05-07T03:02:03.560Z,81.20
2019-05-07T03:04:33.407Z,81.20
2019-05-07T03:07:03.825Z,81.00
2019-05-07T03:09:32.966Z,81.00
2019-05-07T03:12:03.976Z,81.00
2019-05-07T03:14:32.461Z,81.00
2019-05-07T03:17:02.975Z,81.10
2019-05-07T03:19:33.220Z,81.20
2019-05-07T03:22:03.910Z,81.10
2019-05-07T03:24:43.145Z,81.20
2019-05-07T03:27:13.773Z,81.30
2019-05-07T03:29:44.224Z,80.90
2019-05-07T03:32:27.574Z,81.10
2019-05-07T03:35:05.932Z,81.40
2019-05-07T03:37:35.919Z,81.50
2019-05-07T03:40:04.020Z,81.30
2019-05-07T03:42:33.786Z,82.00
2019-05-07T03:45:04.166Z,81.40
2019-05-07T03:47:34.361Z,81.40
2019-05-07T03:50:03.553Z,81.30
2019-05-07T03:52:33.557Z,81.30
2019-05-07T03:55:03.653Z,81.50
2019-05-07T03:57:33.414Z,81.40
2019-05-07T04:00:04.330Z,81.20
2019-05-07T04:02:33.398Z,81.10
2019-05-07T04:05:04.188Z,81.30
2019-05-07T04:07:33.728Z,81.20
2019-05-07T04:10:04.358Z,81.00
2019-05-07T04:12:34.289Z,81.20
2019-05-07T04:15:03.447Z,80.70
2019-05-07T04:17:33.822Z,80.50
2019-05-07T04:20:04.546Z,81.20
2019-05-07T04:22:34.571Z,80.00
2019-05-07T04:25:07.376Z,79.80
2019-05-07T04:27:52.590Z,79.50
2019-05-07T04:30:23.313Z,79.20
2019-05-07T04:32:53.047Z,78.90
2019-05-07T04:35:24.445Z,78.70
2019-05-07T04:37:53.473Z,79.00
2019-05-07T04:40:23.984Z,79.30
2019-05-07T04:42:53.900Z,79.60
2019-05-07T04:45:23.273Z,79.00
2019-05-07T04:47:53.867Z,78.50
2019-05-07T04:50:37.797Z,78.20
2019-05-07T04:52:54.200Z,78.00
2019-05-07T04:55:23.061Z,77.60
2019-05-07T04:57:53.401Z,77.30
2019-05-07T05:00:23.143Z,77.00
2019-05-07T05:03:12.678Z,76.90
2019-05-07T05:05:43.272Z,76.60
2019-05-07T05:08:13.462Z,76.30
2019-05-07T05:10:43.312Z,76.20
2019-05-07T05:13:12.901Z,76.20
2019-05-07T05:15:43.180Z,74.90
2019-05-07T05:18:12.727Z,73.40
2019-05-07T05:20:43.506Z,72.80
2019-05-07T05:23:25.563Z,73.00
2019-05-07T05:25:54.292Z,72.60
2019-05-07T05:28:22.728Z,72.50
2019-05-07T05:30:55.924Z,73.40
2019-05-07T05:33:24.647Z,72.20
2019-05-07T05:35:53.138Z,72.30
2019-05-07T05:38:22.293Z,70.80
2019-05-07T05:40:52.128Z,69.60
2019-05-07T05:43:23.105Z,68.10
2019-05-07T05:45:59.164Z,67.00
2019-05-07T05:48:27.926Z,66.30
2019-05-07T05:51:11.872Z,62.40
2019-05-07T05:53:45.409Z,59.20
2019-05-07T05:56:19.028Z,58.00
2019-05-07T06:01:58.907Z,62.80
2019-05-07T06:04:47.233Z,61.10
2019-05-07T06:07:22.538Z,58.40
2019-05-07T06:10:06.991Z,56.00
2019-05-07T06:12:45.856Z,55.50
2019-05-07T06:15:26.343Z,53.90
2019-05-07T06:17:56.461Z,54.70
2019-05-07T06:20:31.934Z,53.90
2019-05-07T06:23:17.705Z,53.70
2019-05-07T06:25:48.216Z,54.40
2019-05-07T06:28:16.773Z,54.80
2019-05-07T06:30:45.549Z,54.60
2019-05-07T06:33:14.082Z,54.00
2019-05-07T06:35:43.065Z,52.40
2019-05-07T06:38:12.774Z,52.70
2019-05-07T06:40:43.003Z,52.40
2019-05-07T06:43:48.514Z,51.30
2019-05-07T06:46:17.317Z,53.10
2019-05-07T06:48:46.423Z,52.70
2019-05-07T06:51:17.267Z,53.40
2019-05-07T06:53:45.228Z,50.90
2019-05-07T06:56:13.715Z,50.60
2019-05-07T06:58:44.195Z,50.50
2019-05-07T07:01:32.319Z,51.10
2019-05-07T07:04:12.944Z,51.70
2019-05-07T07:06:49.416Z,49.80
2019-05-07T07:09:37.994Z,48.60
2019-05-07T07:12:18.810Z,47.70
2019-05-07T07:14:47.598Z,47.00
2019-05-07T07:17:28.342Z,44.40
2019-05-07T07:19:56.846Z,44.50
2019-05-07T07:22:25.305Z,44.20
2019-05-07T07:24:54.193Z,44.40
2019-05-07T07:27:22.888Z,44.40
2019-05-07T07:29:56.073Z,43.50
2019-05-07T07:32:28.892Z,44.10
2019-05-07T07:34:57.711Z,46.30
2019-05-07T07:37:34.361Z,47.20
2019-05-07T07:40:08.024Z,46.10
2019-05-07T07:42:36.465Z,45.00
2019-05-07T07:45:16.580Z,43.80
2019-05-07T07:47:46.559Z,42.50
2019-05-07T07:50:16.679Z,43.30
2019-05-07T07:52:45.345Z,43.90
2019-05-07T07:55:16.444Z,44.00
2019-05-07T07:58:02.726Z,43.60
2019-05-07T08:00:48.658Z,43.50
2019-05-07T08:03:17.117Z,42.00
2019-05-07T08:05:45.945Z,41.10
2019-05-07T08:08:14.671Z,40.80
2019-05-07T08:10:43.332Z,41.20
2019-05-07T08:13:12.299Z,41.10
2019-05-07T08:15:43.008Z,41.00
2019-05-07T08:18:12.020Z,42.00
2019-05-07T08:20:42.884Z,42.20
2019-05-07T08:23:12.192Z,42.40
2019-05-07T08:25:52.531Z,44.20
2019-05-07T08:28:23.238Z,42.30
2019-05-07T08:30:56.474Z,41.10
2019-05-07T08:33:26.708Z,43.40
2019-05-07T08:35:56.830Z,44.40
2019-05-07T08:38:25.578Z,45.90
2019-05-07T08:40:54.442Z,45.30
2019-05-07T08:43:23.045Z,42.70
2019-05-07T08:45:53.290Z,41.70
2019-05-07T08:48:23.509Z,41.10
2019-05-07T08:50:52.524Z,42.20
2019-05-07T08:53:22.459Z,43.00
2019-05-07T08:55:52.652Z,43.10
2019-05-07T08:58:22.409Z,44.00
2019-05-07T09:00:52.385Z,47.70
2019-05-07T09:03:38.971Z,47.40
2019-05-07T09:06:07.526Z,45.10
2019-05-07T09:08:37.553Z,43.00
2019-05-07T09:11:06.009Z,41.90
2019-05-07T09:13:34.495Z,43.80
2019-05-07T09:16:03.303Z,43.80
2019-05-07T09:18:32.262Z,43.80
2019-05-07T09:21:02.237Z,43.70
2019-05-07T09:23:31.887Z,42.50
2019-05-07T09:26:02.776Z,42.90
2019-05-07T09:28:33.485Z,42.50
2019-05-07T09:31:06.098Z,43.10
2019-05-07T09:33:45.127Z,41.60
2019-05-07T09:36:15.469Z,42.10
2019-05-07T09:38:56.163Z,41.80
2019-05-07T09:41:16.079Z,41.20
2019-05-07T09:43:44.805Z,42.60
2019-05-07T09:46:13.347Z,43.20
2019-05-07T09:48:41.850Z,43.70
2019-05-07T09:51:12.161Z,43.00
2019-05-07T09:53:42.391Z,42.60
2019-05-07T09:56:12.384Z,41.10
2019-05-07T09:58:42.607Z,40.80
2019-05-07T10:01:12.572Z,40.90
2019-05-07T10:03:42.882Z,40.60
2019-05-07T10:06:12.420Z,41.30
2019-05-07T10:08:41.996Z,41.90
2019-05-07T10:11:12.241Z,41.70
2019-05-07T10:13:42.430Z,42.00
2019-05-07T10:16:34.711Z,40.30
2019-05-07T10:19:03.462Z,39.70
2019-05-07T10:21:32.315Z,39.30
2019-05-07T10:24:02.360Z,38.40
2019-05-07T10:26:32.274Z,38.90
2019-05-07T10:29:02.186Z,39.30
2019-05-07T10:31:32.035Z,40.40
2019-05-07T10:34:02.893Z,40.30
2019-05-07T10:36:32.164Z,41.00
2019-05-07T10:39:02.488Z,41.80
2019-05-07T10:41:31.840Z,41.10
2019-05-07T10:44:02.429Z,39.90
2019-05-07T10:46:35.078Z,40.20
2019-05-07T10:49:22.473Z,40.20
2019-05-07T10:51:51.800Z,39.30
2019-05-07T10:54:21.878Z,38.00
2019-05-07T10:56:52.425Z,36.10
2019-05-07T10:59:22.480Z,35.10
2019-05-07T11:02:02.439Z,35.70
2019-05-07T11:04:40.355Z,37.20
2019-05-07T11:07:01.513Z,34.10
2019-05-07T11:09:29.977Z,34.10
2019-05-07T11:11:58.513Z,34.60
2019-05-07T11:14:27.091Z,33.80
2019-05-07T11:16:57.530Z,32.60
2019-05-07T11:19:26.212Z,32.60
2019-05-07T11:21:54.694Z,33.40
2019-05-07T11:24:24.814Z,33.80
2019-05-07T11:26:53.876Z,33.80
2019-05-07T11:29:22.404Z,34.00
2019-05-07T11:31:52.513Z,33.70
2019-05-07T11:34:22.082Z,32.20
2019-05-07T11:36:52.387Z,31.80
2019-05-07T11:39:22.678Z,32.70
2019-05-07T11:42:08.669Z,32.90
2019-05-07T11:44:37.418Z,34.20
2019-05-07T11:47:25.513Z,35.20
2019-05-07T11:50:14.747Z,38.10
2019-05-07T11:52:45.034Z,41.60
2019-05-07T11:55:13.898Z,42.30
2019-05-07T11:57:44.454Z,43.40
2019-05-07T12:00:27.846Z,42.60
2019-05-07T12:02:56.654Z,42.00
2019-05-07T12:05:25.436Z,41.40
2019-05-07T12:07:53.920Z,41.40
2019-05-07T12:10:22.459Z,41.60
2019-05-07T12:12:52.121Z,41.80
2019-05-07T12:15:21.723Z,39.50
2019-05-07T12:17:52.130Z,40.60
2019-05-07T12:20:21.812Z,41.70
2019-05-07T12:22:52.157Z,41.30
2019-05-07T12:25:22.469Z,42.00
2019-05-07T12:27:53.896Z,40.30
2019-05-07T12:30:28.375Z,39.30
2019-05-07T12:32:58.492Z,37.50
2019-05-07T12:35:26.990Z,35.90
2019-05-07T12:37:55.453Z,35.70
2019-05-07T12:40:24.076Z,34.70
2019-05-07T12:42:52.623Z,34.30
2019-05-07T12:45:22.801Z,33.50
2019-05-07T12:47:52.950Z,32.50
2019-05-07T12:50:21.980Z,32.60
2019-05-07T12:53:04.488Z,32.60
2019-05-07T12:55:37.338Z,33.20
2019-05-07T12:58:06.157Z,33.10
2019-05-07T13:00:52.171Z,31.80
2019-05-07T13:03:28.272Z,32.00
2019-05-07T13:05:57.014Z,31.00
2019-05-07T13:08:25.705Z,31.30
2019-05-07T13:10:54.184Z,31.90
2019-05-07T13:13:22.913Z,32.60
2019-05-07T13:15:51.906Z,32.90
2019-05-07T13:18:22.495Z,33.90
2019-05-07T13:20:51.920Z,36.90
2019-05-07T13:23:22.527Z,38.80
2019-05-07T13:25:52.292Z,41.40
2019-05-07T13:28:21.358Z,44.70
2019-05-07T13:30:52.473Z,46.00
2019-05-07T13:33:22.808Z,45.40
2019-05-07T13:35:52.213Z,45.10
2019-05-07T13:38:23.879Z,46.20
2019-05-07T13:41:12.613Z,45.60
2019-05-07T13:43:45.337Z,46.10
2019-05-07T13:46:15.560Z,47.30
2019-05-07T13:48:45.802Z,48.70
2019-05-07T13:51:15.182Z,48.90
2019-05-07T13:53:43.827Z,47.90
2019-05-07T13:56:12.875Z,47.70
2019-05-07T13:58:42.822Z,47.90
2019-05-07T14:01:13.420Z,47.20
2019-05-07T14:03:42.511Z,46.30
2019-05-07T14:06:12.765Z,43.40
2019-05-07T14:08:43.045Z,42.90
2019-05-07T14:11:12.235Z,41.10
2019-05-07T14:13:43.434Z,41.20
2019-05-07T14:16:13.384Z,40.90
2019-05-07T14:18:41.895Z,39.30
2019-05-07T14:21:12.989Z,41.20
2019-05-07T14:23:42.812Z,39.50
2019-05-07T14:26:11.714Z,39.20
2019-05-07T14:28:42.126Z,38.50
2019-05-07T14:31:12.334Z,38.90
2019-05-07T14:33:54.758Z,38.20
2019-05-07T14:36:25.279Z,36.60
2019-05-07T14:38:54.718Z,36.10
2019-05-07T14:41:25.766Z,36.40
2019-05-07T14:43:58.176Z,36.30
2019-05-07T14:46:27.005Z,37.90
2019-05-07T14:48:55.465Z,41.40
2019-05-07T14:51:24.595Z,42.90
2019-05-07T14:53:53.606Z,42.40
2019-05-07T14:56:23.203Z,43.00
2019-05-07T14:58:51.788Z,42.70
2019-05-07T15:01:22.293Z,42.30
2019-05-07T15:03:51.688Z,39.80
2019-05-07T15:06:21.930Z,38.50
2019-05-07T15:08:52.264Z,37.70
2019-05-07T15:11:23.739Z,38.40
2019-05-07T15:13:52.425Z,38.60
2019-05-07T15:16:22.491Z,39.20
2019-05-07T15:18:53.281Z,40.10
2019-05-07T15:21:24.577Z,40.00
2019-05-07T15:24:34.798Z,39.10
2019-05-07T15:27:09.207Z,39.30
2019-05-07T15:32:42.852Z,39.90
2019-05-07T15:35:17.889Z,41.00
2019-05-07T15:38:03.999Z,38.80
2019-05-07T15:40:36.111Z,37.30
2019-05-07T15:43:04.694Z,35.90
2019-05-07T15:45:33.839Z,36.30
2019-05-07T15:48:06.114Z,36.80
2019-05-07T15:50:37.819Z,36.90
2019-05-07T15:53:08.115Z,37.50
2019-05-07T15:55:36.588Z,36.60
2019-05-07T15:58:05.070Z,36.40
2019-05-07T16:00:36.536Z,35.10
2019-05-07T16:03:11.871Z,34.90
2019-05-07T16:05:42.392Z,35.20
2019-05-07T16:08:12.618Z,34.90
2019-05-07T16:10:42.657Z,34.80
2019-05-07T16:13:14.532Z,35.30
2019-05-07T16:15:43.404Z,35.00
2019-05-07T16:18:23.646Z,35.60
2019-05-07T16:20:52.255Z,36.30
2019-05-07T16:23:22.075Z,36.50
2019-05-07T16:25:52.676Z,36.60
2019-05-07T16:28:21.900Z,37.00
2019-05-07T16:30:52.092Z,38.60
2019-05-07T16:33:24.996Z,39.20
2019-05-07T16:35:55.187Z,39.30
2019-05-07T16:38:29.424Z,39.30
2019-05-07T16:40:58.576Z,39.10
2019-05-07T16:43:27.460Z,39.20
2019-05-07T16:45:56.562Z,38.40
2019-05-07T16:48:26.776Z,38.90
2019-05-07T16:50:55.759Z,39.50
2019-05-07T16:53:29.762Z,39.60
2019-05-07T16:55:55.498Z,39.10
2019-05-07T16:58:36.418Z,37.10
2019-05-07T17:01:12.400Z,34.50
2019-05-07T17:03:52.564Z,35.40
2019-05-07T17:06:39.248Z,36.10
2019-05-07T17:09:13.443Z,36.40
2019-05-07T17:12:02.118Z,38.50
2019-05-07T17:14:48.543Z,40.20
2019-05-07T17:23:04.722Z,41.60
2019-05-07T17:38:28.294Z,42.80
2019-05-07T17:46:57.798Z,44.20
2019-05-07T17:49:34.001Z,44.30
2019-05-07T17:59:07.465Z,44.00
2019-05-07T18:01:43.598Z,44.70
2019-05-07T18:07:21.471Z,44.70
2019-05-07T18:09:57.802Z,44.90
2019-05-07T18:16:17.792Z,45.70
2019-05-07T18:18:46.665Z,46.00
2019-05-07T18:21:15.288Z,47.70
2019-05-07T18:24:11.292Z,48.50
2019-05-07T19:04:45.683Z,52.30
2019-05-07T19:07:14.303Z,52.70
2019-05-07T19:09:44.329Z,52.90
2019-05-07T19:12:14.641Z,52.70
2019-05-07T19:14:45.573Z,52.80
2019-05-07T19:17:14.674Z,52.80
2019-05-07T19:19:43.747Z,52.90
2019-05-07T19:22:12.282Z,54.30
2019-05-07T19:27:37.895Z,54.50
2019-05-07T19:30:08.952Z,55.40
2019-05-07T19:32:42.865Z,55.30
2019-05-07T19:35:13.035Z,55.90
2019-05-07T19:37:45.408Z,56.00
2019-05-07T19:40:14.019Z,55.60
2019-05-07T19:42:42.899Z,56.10
2019-05-07T19:45:17.995Z,57.50
2019-05-07T19:47:45.709Z,57.80
2019-05-07T19:50:20.173Z,58.30
2019-05-07T19:52:58.888Z,58.70
2019-05-07T19:55:21.826Z,58.60
2019-05-07T19:58:00.820Z,58.70
2019-05-07T20:00:29.691Z,58.50
2019-05-07T20:03:00.473Z,59.00
2019-05-07T20:05:32.150Z,59.40
2019-05-07T20:08:04.735Z,59.40
2019-05-07T20:10:34.955Z,60.00
2019-05-07T20:13:03.435Z,60.20
2019-05-07T20:15:37.894Z,60.70
2019-05-07T20:18:07.116Z,60.70
2019-05-07T20:20:35.627Z,60.40
2019-05-07T20:23:05.501Z,61.30
2019-05-07T20:25:34.494Z,61.40
2019-05-07T20:28:16.746Z,61.20
2019-05-07T20:30:36.722Z,61.20
2019-05-07T20:33:05.379Z,61.60
2019-05-07T20:35:37.214Z,61.60
2019-05-07T20:38:07.136Z,61.70
2019-05-07T20:40:35.941Z,61.70
2019-05-07T20:43:07.406Z,62.60
2019-05-07T20:45:36.875Z,63.70
2019-05-07T20:48:05.862Z,64.80
2019-05-07T20:50:34.405Z,65.00
2019-05-07T20:53:02.881Z,64.40
2019-05-07T20:55:49.438Z,63.90
2019-05-07T20:58:18.345Z,64.00
2019-05-07T21:00:47.332Z,64.20
2019-05-07T21:03:23.882Z,64.50
2019-05-07T21:05:53.368Z,64.80
2019-05-07T21:08:22.779Z,65.10
2019-05-07T21:10:53.490Z,65.50
2019-05-07T21:13:30.377Z,65.60
2019-05-07T21:15:53.708Z,66.10
2019-05-07T21:18:26.422Z,66.50
2019-05-07T21:20:54.961Z,66.20
2019-05-07T21:23:23.498Z,66.40
2019-05-07T21:25:52.790Z,66.50
2019-05-07T21:28:22.923Z,66.90
2019-05-07T21:30:54.393Z,67.20
2019-05-07T21:33:23.148Z,67.50
2019-05-07T21:35:53.210Z,67.90
2019-05-07T21:38:22.555Z,68.00
2019-05-07T21:40:51.607Z,68.60
2019-05-07T21:43:22.243Z,67.50
2019-05-07T21:45:53.041Z,67.40
2019-05-07T21:48:22.496Z,67.10
2019-05-07T21:50:51.986Z,67.00
2019-05-07T21:53:27.971Z,67.00
2019-05-07T21:56:05.409Z,66.90
2019-05-07T21:58:35.888Z,67.50
2019-05-07T22:01:06.793Z,67.60
2019-05-07T22:03:35.609Z,67.80
2019-05-07T22:06:04.150Z,68.20
2019-05-07T22:08:32.733Z,68.40
2019-05-07T22:11:02.450Z,68.60
2019-05-07T22:13:33.819Z,68.40
2019-05-07T22:16:02.809Z,68.60
2019-05-07T22:18:33.826Z,69.10
2019-05-07T22:21:02.987Z,68.60
2019-05-07T22:23:32.328Z,68.20
2019-05-07T22:26:16.665Z,68.80
2019-05-07T22:28:33.809Z,69.00
2019-05-07T22:31:12.736Z,69.00
2019-05-07T22:33:52.743Z,68.70
2019-05-07T22:36:22.002Z,68.60
2019-05-07T22:38:52.653Z,67.70
2019-05-07T22:41:22.402Z,68.10
2019-05-07T22:43:52.584Z,68.10
2019-05-07T22:46:22.302Z,67.80
2019-05-07T22:48:51.058Z,67.70
2019-05-07T22:51:19.880Z,67.90
2019-05-07T22:53:48.426Z,67.50
2019-05-07T22:56:30.969Z,67.70
2019-05-07T22:58:49.371Z,68.50
2019-05-07T23:01:22.632Z,68.00
2019-05-07T23:03:51.828Z,68.10
2019-05-07T23:06:23.378Z,68.10
2019-05-07T23:08:52.888Z,67.00
2019-05-07T23:11:22.940Z,67.40
2019-05-07T23:13:54.387Z,68.10
2019-05-07T23:16:23.098Z,68.20
2019-05-07T23:18:54.445Z,67.80
2019-05-07T23:21:24.659Z,67.90
2019-05-07T23:23:53.550Z,67.80
2019-05-07T23:26:23.346Z,68.30
2019-05-07T23:28:52.413Z,68.80
2019-05-07T23:31:22.837Z,68.50
2019-05-07T23:33:52.348Z,68.80
2019-05-07T23:36:22.688Z,69.00
2019-05-07T23:38:52.062Z,69.10
2019-05-07T23:41:25.344Z,68.80
2019-05-07T23:44:12.592Z,68.60
2019-05-07T23:46:42.618Z,68.80
2019-05-07T23:49:12.464Z,68.70
2019-05-07T23:51:42.088Z,68.60
2019-05-07T23:54:12.126Z,69.00
2019-05-07T23:56:42.723Z,68.80
2019-05-07T23:59:14.509Z,69.10
